createdAt,value
2019-05-02T00:03:15.762Z,9.30
2019-05-02T00:08:15.746Z,10.87
2019-05-02T00:13:15.562Z,9.73
2019-05-02T00:18:15.699Z,10.40
2019-05-02T00:23:15.515Z,9.93
2019-05-02T00:28:15.147Z,7.93
2019-05-02T00:33:14.786Z,10.03
2019-05-02T00:38:14.330Z,9.63
2019-05-02T00:43:14.847Z,9.77
2019-05-02T00:48:24.299Z,9.80
2019-05-02T00:53:24.070Z,9.73
2019-05-02T00:58:27.307Z,9.23
2019-05-02T01:03:26.529Z,10.93
2019-05-02T01:08:26.289Z,10.47
2019-05-02T01:13:25.891Z,9.83
2019-05-02T01:18:25.486Z,10.97
2019-05-02T01:23:27.627Z,9.77
2019-05-02T01:28:49.193Z,10.37
2019-05-02T01:34:07.207Z,11.17
2019-05-02T01:39:10.216Z,9.50
2019-05-02T01:44:09.877Z,11.77
2019-05-02T01:49:09.422Z,10.77
2019-05-02T01:54:10.083Z,10.30
2019-05-02T01:59:10.250Z,10.80
2019-05-02T02:04:16.073Z,11.53
2019-05-02T02:09:12.979Z,11.60
2019-05-02T02:14:14.948Z,10.90
2019-05-02T02:19:25.155Z,10.40
2019-05-02T02:24:34.921Z,9.10
2019-05-02T02:29:34.491Z,9.27
2019-05-02T02:34:34.042Z,10.40
2019-05-02T02:39:33.673Z,9.73
2019-05-02T02:44:43.192Z,10.97
2019-05-02T02:49:42.742Z,9.43
2019-05-02T02:54:43.687Z,9.67
2019-05-02T02:59:43.540Z,9.30
2019-05-02T03:04:45.947Z,9.70
2019-05-02T03:09:44.589Z,9.17
2019-05-02T03:14:49.550Z,8.80
2019-05-02T03:19:54.469Z,9.00
2019-05-02T03:24:50.338Z,9.53
2019-05-02T03:29:50.191Z,7.50
2019-05-02T03:34:53.542Z,7.73
2019-05-02T03:39:57.568Z,7.80
2019-05-02T03:44:56.164Z,8.30
2019-05-02T03:49:53.952Z,8.07
2019-05-02T03:54:53.867Z,8.30
2019-05-02T03:59:53.491Z,7.10
2019-05-02T04:04:59.731Z,9.23
2019-05-02T04:09:55.402Z,7.83
2019-05-02T04:14:56.033Z,8.20
2019-05-02T04:19:56.792Z,7.70
2019-05-02T04:24:57.271Z,7.50
2019-05-02T04:29:56.961Z,9.07
2019-05-02T04:34:58.052Z,7.90
2019-05-02T04:40:01.394Z,9.03
2019-05-02T04:45:21.406Z,8.23
2019-05-02T04:50:07.740Z,7.60
2019-05-02T04:55:17.159Z,6.43
2019-05-02T05:00:10.515Z,5.70
2019-05-02T05:05:08.132Z,7.37
2019-05-02T05:10:08.383Z,7.30
2019-05-02T05:15:13.382Z,7.03
2019-05-02T05:20:14.126Z,6.50
2019-05-02T05:25:17.688Z,8.00
2019-05-02T05:30:18.744Z,7.60
2019-05-02T05:35:18.409Z,6.80
2019-05-02T05:40:22.445Z,7.07
2019-05-02T05:45:19.206Z,6.90
2019-05-02T05:50:19.846Z,7.00
2019-05-02T05:55:24.064Z,6.03
2019-05-02T06:00:23.179Z,7.40
2019-05-02T06:05:22.127Z,6.10
2019-05-02T06:10:21.823Z,6.80
2019-05-02T06:15:21.371Z,5.80
2019-05-02T06:20:20.998Z,5.90
2019-05-02T06:25:32.102Z,5.63
2019-05-02T06:30:27.171Z,6.77
2019-05-02T06:35:24.641Z,6.37
2019-05-02T06:40:25.169Z,6.40
2019-05-02T06:45:24.968Z,6.10
2019-05-02T06:50:24.944Z,7.00
2019-05-02T06:55:28.129Z,5.73
2019-05-02T07:00:35.577Z,7.00
2019-05-02T07:05:27.410Z,7.10
2019-05-02T07:10:30.976Z,6.50
2019-05-02T07:15:51.606Z,7.07
2019-05-02T07:20:52.319Z,6.70
2019-05-02T07:25:53.034Z,6.70
2019-05-02T07:30:54.654Z,6.50
2019-05-02T07:35:59.663Z,7.30
2019-05-02T07:40:57.030Z,6.53
2019-05-02T07:45:56.806Z,6.97
2019-05-02T07:50:58.787Z,7.17
2019-05-02T07:55:59.662Z,8.73
2019-05-02T08:00:59.421Z,7.70
2019-05-02T08:05:59.945Z,7.67
2019-05-02T08:11:01.694Z,8.30
2019-05-02T08:16:01.977Z,7.10
2019-05-02T08:21:01.531Z,8.30
2019-05-02T08:26:01.858Z,9.00
2019-05-02T08:31:02.497Z,10.20
2019-05-02T08:36:03.021Z,10.90
2019-05-02T08:41:03.554Z,9.40
2019-05-02T08:46:04.232Z,9.03
2019-05-02T08:51:04.769Z,11.50
2019-05-02T08:56:04.567Z,9.33
2019-05-02T09:01:04.306Z,9.93
2019-05-02T09:06:05.974Z,9.37
2019-05-02T09:11:05.306Z,9.10
2019-05-02T09:16:06.031Z,11.00
2019-05-02T09:21:06.284Z,11.77
2019-05-02T09:26:06.172Z,10.70
2019-05-02T09:31:06.757Z,12.57
2019-05-02T09:36:06.753Z,12.20
2019-05-02T09:41:16.130Z,10.67
2019-05-02T09:46:12.805Z,8.10
2019-05-02T09:51:12.904Z,11.00
2019-05-02T09:56:12.665Z,11.43
2019-05-02T10:01:19.451Z,10.77
2019-05-02T10:06:22.812Z,11.00
2019-05-02T10:11:26.151Z,10.80
2019-05-02T10:16:27.330Z,11.87
2019-05-02T10:21:25.548Z,11.03
2019-05-02T10:26:25.290Z,12.90
2019-05-02T10:31:27.479Z,11.97
2019-05-02T10:36:26.157Z,11.93
2019-05-02T10:41:25.727Z,12.27
2019-05-02T10:46:43.339Z,11.10
2019-05-02T10:51:48.974Z,10.77
2019-05-02T10:56:44.221Z,11.40
2019-05-02T11:01:58.284Z,11.23
2019-05-02T11:06:58.239Z,11.43
2019-05-02T11:11:58.590Z,11.20
2019-05-02T11:17:17.652Z,10.50
2019-05-02T11:22:14.968Z,11.30
2019-05-02T11:27:14.573Z,10.67
2019-05-02T11:32:14.142Z,12.30
2019-05-02T11:37:13.707Z,11.83
2019-05-02T11:42:17.539Z,9.63
2019-05-02T11:47:17.185Z,11.40
2019-05-02T11:52:15.856Z,11.40
2019-05-02T11:57:15.485Z,12.27
2019-05-02T12:02:32.926Z,11.90
2019-05-02T12:07:35.984Z,11.20
2019-05-02T12:12:36.390Z,11.07
2019-05-02T12:17:36.151Z,11.10
2019-05-02T12:22:35.716Z,11.80
2019-05-02T12:27:35.278Z,11.57
2019-05-02T12:32:34.902Z,10.73
2019-05-02T12:37:34.458Z,10.10
2019-05-02T12:42:34.369Z,10.33
2019-05-02T12:47:34.311Z,11.43
2019-05-02T12:52:33.875Z,10.47
2019-05-02T12:57:33.513Z,10.37
2019-05-02T13:02:41.239Z,8.07
2019-05-02T13:07:42.885Z,9.30
2019-05-02T13:12:42.856Z,10.00
2019-05-02T13:17:48.244Z,8.73
2019-05-02T13:23:05.875Z,8.47
2019-05-02T13:28:05.726Z,9.43
2019-05-02T13:33:07.389Z,8.90
2019-05-02T13:38:08.918Z,10.43
2019-05-02T13:43:08.731Z,8.67
2019-05-02T13:48:08.598Z,7.30
2019-05-02T13:53:08.346Z,8.53
2019-05-02T13:58:08.171Z,8.07
2019-05-02T14:03:07.833Z,8.20
2019-05-02T14:08:17.721Z,7.77
2019-05-02T14:13:17.278Z,8.60
2019-05-02T14:18:16.848Z,9.63
2019-05-02T14:23:16.404Z,9.47
2019-05-02T14:28:17.027Z,9.83
2019-05-02T14:33:20.547Z,10.70
2019-05-02T14:38:21.962Z,11.37
2019-05-02T14:43:46.121Z,11.50
2019-05-02T14:48:45.104Z,13.07
2019-05-02T14:53:43.008Z,10.03
2019-05-02T14:58:43.023Z,11.33
2019-05-02T15:03:42.727Z,12.47
2019-05-02T15:08:44.894Z,12.50
2019-05-02T15:13:43.730Z,12.50
2019-05-02T15:18:47.667Z,13.03
2019-05-02T15:23:48.863Z,12.10
2019-05-02T15:28:46.737Z,11.83
2019-05-02T15:33:56.342Z,13.27
2019-05-02T15:38:56.125Z,11.80
2019-05-02T15:43:56.396Z,13.50
2019-05-02T15:48:57.123Z,13.20
2019-05-02T15:54:08.215Z,13.00
2019-05-02T15:59:06.346Z,14.50
2019-05-02T16:04:07.394Z,13.37
2019-05-02T16:09:08.005Z,12.83
2019-05-02T16:14:09.177Z,13.33
2019-05-02T16:19:16.570Z,13.63
2019-05-02T16:24:19.924Z,15.20
2019-05-02T16:29:26.911Z,13.20
2019-05-02T16:34:22.670Z,12.30
2019-05-02T16:39:22.426Z,12.67
2019-05-02T16:44:22.851Z,11.40
2019-05-02T16:49:22.811Z,13.80
2019-05-02T16:54:22.485Z,13.77
2019-05-02T16:59:23.278Z,13.83
2019-05-02T17:04:22.947Z,14.87
2019-05-02T17:09:33.830Z,13.53
2019-05-02T17:14:33.568Z,12.07
2019-05-02T17:19:34.786Z,14.23
2019-05-02T17:24:34.557Z,14.60
2019-05-02T17:29:34.143Z,14.60
2019-05-02T17:34:35.060Z,16.47
2019-05-02T17:39:37.310Z,17.20
2019-05-02T17:44:37.088Z,17.20
2019-05-02T17:49:36.941Z,17.33
2019-05-02T17:54:36.701Z,17.13
2019-05-02T17:59:37.740Z,17.93
2019-05-02T18:04:37.430Z,17.93
2019-05-02T18:09:37.012Z,18.20
2019-05-02T18:14:36.566Z,20.53
2019-05-02T18:19:36.101Z,19.70
2019-05-02T18:24:37.320Z,19.20
2019-05-02T18:29:42.437Z,22.00
2019-05-02T18:34:38.274Z,18.67
2019-05-02T18:39:42.621Z,19.23
2019-05-02T18:44:39.158Z,18.70
2019-05-02T18:49:38.711Z,18.17
2019-05-02T18:54:38.572Z,19.60
2019-05-02T18:59:39.504Z,18.87
2019-05-02T19:04:39.841Z,19.50
2019-05-02T19:09:49.072Z,18.90
2019-05-02T19:14:42.002Z,17.63
2019-05-02T19:19:42.727Z,18.63
2019-05-02T19:24:43.369Z,19.60
2019-05-02T19:29:48.090Z,17.20
2019-05-02T19:34:44.518Z,18.60
2019-05-02T19:39:48.754Z,18.53
2019-05-02T19:44:46.683Z,19.10
2019-05-02T19:49:47.349Z,17.80
2019-05-02T19:54:47.622Z,19.13
2019-05-02T19:59:47.249Z,18.57
2019-05-02T20:04:46.882Z,17.27
2019-05-02T20:09:47.439Z,18.00
2019-05-02T20:14:48.309Z,16.30
2019-05-02T20:19:52.765Z,17.60
2019-05-02T20:25:00.102Z,19.70
2019-05-02T20:29:57.508Z,17.33
2019-05-02T20:34:57.092Z,18.70
2019-05-02T20:39:58.648Z,17.93
2019-05-02T20:45:02.192Z,12.73
2019-05-02T20:50:23.747Z,7.83
2019-05-02T20:55:25.303Z,7.13
2019-05-02T21:00:29.408Z,8.30
2019-05-02T21:05:39.363Z,7.53
2019-05-02T21:10:41.721Z,7.60
2019-05-02T21:15:43.396Z,9.00
2019-05-02T21:20:43.014Z,7.43
2019-05-02T21:25:42.570Z,8.50
2019-05-02T21:30:42.182Z,8.40
2019-05-02T21:35:42.396Z,8.97
2019-05-02T21:40:42.397Z,9.90
2019-05-02T21:45:42.228Z,8.60
2019-05-02T21:50:49.798Z,7.33
2019-05-02T21:56:17.803Z,4.53
2019-05-02T22:01:17.751Z,3.60
2019-05-02T22:06:17.298Z,3.20
2019-05-02T22:11:16.852Z,3.40
2019-05-02T22:16:16.490Z,3.03
2019-05-02T22:21:16.031Z,2.90
2019-05-02T22:26:15.595Z,4.03
2019-05-02T22:31:15.145Z,3.50
2019-05-02T22:36:14.789Z,3.13
2019-05-02T22:41:14.344Z,3.50
2019-05-02T22:46:16.254Z,2.57
2019-05-02T22:51:15.811Z,2.70
2019-05-02T22:56:15.411Z,2.43
2019-05-02T23:01:15.035Z,2.80
2019-05-02T23:06:14.745Z,2.50
2019-05-02T23:11:14.842Z,2.20
2019-05-02T23:16:14.563Z,1.60
2019-05-02T23:21:14.136Z,2.37
2019-05-02T23:26:31.826Z,2.00
2019-05-02T23:31:31.761Z,2.13
2019-05-02T23:36:32.700Z,2.10
2019-05-02T23:41:32.934Z,2.13
2019-05-02T23:46:35.471Z,2.40
2019-05-02T23:51:35.281Z,2.60
2019-05-02T23:56:35.992Z,2.20
